createdAt,value
2019-03-17T00:02:17.936Z,8.10
2019-03-17T00:04:44.204Z,7.90
2019-03-17T00:07:10.414Z,7.70
2019-03-17T00:09:36.736Z,7.50
2019-03-17T00:12:03.101Z,7.30
2019-03-17T00:14:29.276Z,7.10
2019-03-17T00:16:55.489Z,6.90
2019-03-17T00:19:21.752Z,6.80
2019-03-17T00:21:47.948Z,6.70
2019-03-17T00:24:14.132Z,6.60
2019-03-17T00:26:40.323Z,6.40
2019-03-17T00:29:06.471Z,6.40
2019-03-17T00:31:32.656Z,6.40
2019-03-17T00:33:58.837Z,6.40
2019-03-17T00:36:25.014Z,6.20
2019-03-17T00:38:51.218Z,6.20
2019-03-17T00:41:17.464Z,6.20
2019-03-17T00:43:43.668Z,6.20
2019-03-17T00:46:09.828Z,6.20
2019-03-17T00:48:35.996Z,6.20
2019-03-17T00:51:02.290Z,6.20
2019-03-17T00:53:28.457Z,6.20
2019-03-17T00:55:55.765Z,6.20
2019-03-17T00:58:21.952Z,6.10
2019-03-17T01:00:48.116Z,6.10
2019-03-17T01:03:15.517Z,6.10
2019-03-17T01:05:42.801Z,6.00
2019-03-17T01:08:09.094Z,5.90
2019-03-17T01:10:35.640Z,5.90
2019-03-17T01:13:01.910Z,5.80
2019-03-17T01:15:28.105Z,5.80
2019-03-17T01:17:54.329Z,5.80
2019-03-17T01:20:20.539Z,5.80
2019-03-17T01:22:46.721Z,5.70
2019-03-17T01:25:13.320Z,5.70
2019-03-17T01:27:39.506Z,5.60
2019-03-17T01:30:08.595Z,5.60
2019-03-17T01:32:34.753Z,5.50
2019-03-17T01:35:09.460Z,5.50
2019-03-17T01:37:32.620Z,5.50
2019-03-17T01:39:58.794Z,5.40
2019-03-17T01:42:24.975Z,5.40
2019-03-17T01:44:51.154Z,5.40
2019-03-17T01:47:17.324Z,5.30
2019-03-17T01:49:43.532Z,5.30
2019-03-17T01:52:10.143Z,5.30
2019-03-17T01:54:36.348Z,5.20
2019-03-17T01:57:02.720Z,5.20
2019-03-17T01:59:28.929Z,5.10
2019-03-17T02:01:55.097Z,5.00
2019-03-17T02:04:21.284Z,5.00
2019-03-17T02:06:47.640Z,4.90
2019-03-17T02:09:13.825Z,4.90
2019-03-17T02:11:40.000Z,4.80
2019-03-17T02:14:06.172Z,4.80
2019-03-17T02:16:32.321Z,4.80
2019-03-17T02:18:58.485Z,4.80
2019-03-17T02:21:24.696Z,4.70
2019-03-17T02:23:50.862Z,4.60
2019-03-17T02:26:17.043Z,4.60
2019-03-17T02:28:43.248Z,4.60
2019-03-17T02:31:09.457Z,4.50
2019-03-17T02:33:56.630Z,4.50
2019-03-17T02:36:23.799Z,4.50
2019-03-17T02:38:49.960Z,4.40
2019-03-17T02:41:16.223Z,4.50
2019-03-17T02:43:43.550Z,4.50
2019-03-17T02:46:09.717Z,4.60
2019-03-17T02:48:35.936Z,4.60
2019-03-17T02:51:02.184Z,4.70
2019-03-17T02:53:29.471Z,4.70
2019-03-17T02:55:55.683Z,4.90
2019-03-17T02:58:21.957Z,4.90
2019-03-17T03:00:51.443Z,4.80
2019-03-17T03:03:17.604Z,4.80
2019-03-17T03:05:54.916Z,4.70
2019-03-17T03:08:12.105Z,4.60
2019-03-17T03:10:38.299Z,4.60
2019-03-17T03:13:04.599Z,4.60
2019-03-17T03:15:30.784Z,4.70
2019-03-17T03:17:56.940Z,4.70
2019-03-17T03:20:23.099Z,4.70
2019-03-17T03:22:49.320Z,4.60
2019-03-17T03:25:15.479Z,4.60
2019-03-17T03:27:41.651Z,4.40
2019-03-17T03:30:12.634Z,4.30
2019-03-17T03:32:38.941Z,4.30
2019-03-17T03:35:06.929Z,4.10
2019-03-17T03:37:33.173Z,4.10
2019-03-17T03:39:59.385Z,4.10
2019-03-17T03:42:25.536Z,4.00
2019-03-17T03:44:51.726Z,4.00
2019-03-17T03:47:18.152Z,3.90
2019-03-17T03:49:44.344Z,3.90
2019-03-17T03:52:10.498Z,3.80
2019-03-17T03:54:36.686Z,3.70
2019-03-17T03:57:04.078Z,3.70
2019-03-17T03:59:30.274Z,3.70
2019-03-17T04:01:56.513Z,3.70
2019-03-17T04:04:22.672Z,3.70
2019-03-17T04:06:48.865Z,3.70
2019-03-17T04:09:15.061Z,3.80
2019-03-17T04:11:41.244Z,3.80
2019-03-17T04:14:07.400Z,3.90
2019-03-17T04:16:33.626Z,4.00
2019-03-17T04:18:59.780Z,4.00
2019-03-17T04:21:25.957Z,4.10
2019-03-17T04:23:52.141Z,4.10
2019-03-17T04:26:18.397Z,4.20
2019-03-17T04:28:44.616Z,4.30
2019-03-17T04:31:14.301Z,4.30
2019-03-17T04:33:38.883Z,4.30
2019-03-17T04:36:05.356Z,4.20
2019-03-17T04:38:31.611Z,4.20
2019-03-17T04:40:57.792Z,4.20
2019-03-17T04:43:23.960Z,4.20
2019-03-17T04:45:50.130Z,4.20
2019-03-17T04:48:16.349Z,4.20
2019-03-17T04:50:42.588Z,4.30
2019-03-17T04:53:08.752Z,4.30
2019-03-17T04:55:34.961Z,4.40
2019-03-17T04:58:01.121Z,4.30
2019-03-17T05:00:27.369Z,4.50
2019-03-17T05:02:53.731Z,4.50
2019-03-17T05:05:19.927Z,4.60
2019-03-17T05:07:46.085Z,4.60
2019-03-17T05:10:12.277Z,4.60
2019-03-17T05:12:38.482Z,4.60
2019-03-17T05:15:07.352Z,4.60
2019-03-17T05:17:33.544Z,4.90
2019-03-17T05:19:59.724Z,4.90
2019-03-17T05:22:25.896Z,4.80
2019-03-17T05:24:53.196Z,4.80
2019-03-17T05:27:19.377Z,4.80
2019-03-17T05:29:45.578Z,4.80
2019-03-17T05:32:11.797Z,4.80
2019-03-17T05:34:37.981Z,4.80
2019-03-17T05:37:06.582Z,4.90
2019-03-17T05:39:32.267Z,4.90
2019-03-17T05:41:58.478Z,5.00
2019-03-17T05:44:24.643Z,5.20
2019-03-17T05:46:50.920Z,5.50
2019-03-17T05:49:17.230Z,5.80
2019-03-17T05:51:43.431Z,5.90
2019-03-17T05:54:09.650Z,6.10
2019-03-17T05:56:36.092Z,6.30
2019-03-17T05:59:02.526Z,6.50
2019-03-17T06:01:28.784Z,6.80
2019-03-17T06:03:54.964Z,7.00
2019-03-17T06:06:21.193Z,7.20
2019-03-17T06:08:48.518Z,7.70
2019-03-17T06:11:14.789Z,8.00
2019-03-17T06:13:40.972Z,8.60
2019-03-17T06:16:07.180Z,8.90
2019-03-17T06:18:33.557Z,9.40
2019-03-17T06:21:00.928Z,9.80
2019-03-17T06:23:27.152Z,10.00
2019-03-17T06:25:53.360Z,10.10
2019-03-17T06:28:21.646Z,10.50
2019-03-17T06:30:47.660Z,10.60
2019-03-17T06:33:13.860Z,10.80
2019-03-17T06:35:40.054Z,10.80
2019-03-17T06:38:06.246Z,11.00
2019-03-17T06:40:32.411Z,11.00
2019-03-17T06:42:58.599Z,11.20
2019-03-17T06:45:24.806Z,11.30
2019-03-17T06:48:04.402Z,11.50
2019-03-17T06:50:30.599Z,11.60
2019-03-17T06:52:56.743Z,11.70
2019-03-17T06:55:22.939Z,12.00
2019-03-17T06:57:49.126Z,12.10
2019-03-17T07:00:15.488Z,12.30
2019-03-17T07:02:41.651Z,12.70
2019-03-17T07:05:08.435Z,12.80
2019-03-17T07:07:43.727Z,12.90
2019-03-17T07:10:04.394Z,13.10
2019-03-17T07:12:30.564Z,13.30
2019-03-17T07:14:56.733Z,13.60
2019-03-17T07:17:22.998Z,14.20
2019-03-17T07:19:49.515Z,14.40
2019-03-17T07:22:15.718Z,14.70
2019-03-17T07:24:41.872Z,15.20
2019-03-17T07:27:12.085Z,15.40
2019-03-17T07:29:38.228Z,15.60
2019-03-17T07:32:04.440Z,16.00
2019-03-17T07:34:30.640Z,16.60
2019-03-17T07:36:56.819Z,17.10
2019-03-17T07:39:22.981Z,17.90
2019-03-17T07:41:49.146Z,18.40
2019-03-17T07:44:15.337Z,18.50
2019-03-17T07:46:41.532Z,18.80
2019-03-17T07:49:08.671Z,19.80
2019-03-17T07:51:34.832Z,20.20
2019-03-17T07:54:02.037Z,20.30
2019-03-17T07:56:28.217Z,20.70
2019-03-17T07:58:54.416Z,20.70
2019-03-17T08:01:20.596Z,21.20
2019-03-17T08:03:46.744Z,20.80
2019-03-17T08:06:12.903Z,21.30
2019-03-17T08:08:39.140Z,21.80
2019-03-17T08:11:05.324Z,21.40
2019-03-17T08:13:31.497Z,21.90
2019-03-17T08:15:57.753Z,22.60
2019-03-17T08:18:23.960Z,22.90
2019-03-17T08:20:50.236Z,22.90
2019-03-17T08:23:16.453Z,23.60
2019-03-17T08:25:42.605Z,23.50
2019-03-17T08:28:08.829Z,24.70
2019-03-17T08:30:34.981Z,24.60
2019-03-17T08:33:01.190Z,24.60
2019-03-17T08:35:27.384Z,24.80
2019-03-17T08:37:53.613Z,24.60
2019-03-17T08:40:19.772Z,24.50
2019-03-17T08:42:46.035Z,26.20
2019-03-17T08:45:12.733Z,26.80
2019-03-17T08:47:38.939Z,27.80
2019-03-17T08:50:13.189Z,27.30
2019-03-17T08:52:39.389Z,27.10
2019-03-17T08:55:07.075Z,25.90
2019-03-17T08:57:33.241Z,26.60
2019-03-17T08:59:59.412Z,26.00
2019-03-17T09:02:25.617Z,26.40
2019-03-17T09:04:51.763Z,27.60
2019-03-17T09:07:17.923Z,27.30
2019-03-17T09:09:44.178Z,27.40
2019-03-17T09:12:10.333Z,26.60
2019-03-17T09:14:36.539Z,27.90
2019-03-17T09:17:13.835Z,27.40
2019-03-17T09:19:31.940Z,27.20
2019-03-17T09:21:58.099Z,26.30
2019-03-17T09:24:24.324Z,27.40
2019-03-17T09:26:50.524Z,28.30
2019-03-17T09:29:16.728Z,27.70
2019-03-17T09:31:42.876Z,28.50
2019-03-17T09:34:09.032Z,28.10
2019-03-17T09:36:35.647Z,27.30
2019-03-17T09:39:04.118Z,27.00
2019-03-17T09:41:30.297Z,25.90
2019-03-17T09:43:56.476Z,25.80
2019-03-17T09:46:22.665Z,25.80
2019-03-17T09:48:50.936Z,25.60
2019-03-17T09:51:17.208Z,25.60
2019-03-17T09:53:43.442Z,26.30
2019-03-17T09:56:09.589Z,27.60
2019-03-17T09:58:35.744Z,28.00
2019-03-17T10:01:01.922Z,27.70
2019-03-17T10:03:28.132Z,28.00
2019-03-17T10:05:54.282Z,28.90
2019-03-17T10:08:20.465Z,28.80
2019-03-17T10:10:48.375Z,28.50
2019-03-17T10:13:14.531Z,27.40
2019-03-17T10:15:40.693Z,27.50
2019-03-17T10:18:06.864Z,27.30
2019-03-17T10:20:33.055Z,27.30
2019-03-17T10:22:59.256Z,27.10
2019-03-17T10:25:26.984Z,26.50
2019-03-17T10:27:53.161Z,26.80
2019-03-17T10:30:20.347Z,27.30
2019-03-17T10:32:46.527Z,27.60
2019-03-17T10:35:12.682Z,27.50
2019-03-17T10:37:39.094Z,27.10
2019-03-17T10:40:09.100Z,26.80
2019-03-17T10:42:35.247Z,26.70
2019-03-17T10:45:02.076Z,26.80
2019-03-17T10:47:28.272Z,26.70
2019-03-17T10:49:54.440Z,27.30
2019-03-17T10:52:20.597Z,28.20
2019-03-17T10:54:46.799Z,28.40
2019-03-17T10:57:12.952Z,29.00
2019-03-17T10:59:39.181Z,28.50
2019-03-17T11:02:05.414Z,27.90
2019-03-17T11:04:31.699Z,27.70
2019-03-17T11:06:58.266Z,28.00
2019-03-17T11:09:25.645Z,28.40
2019-03-17T11:11:52.089Z,27.90
2019-03-17T11:14:18.365Z,27.20
2019-03-17T11:16:44.581Z,27.30
2019-03-17T11:19:10.739Z,28.40
2019-03-17T11:21:36.939Z,28.30
2019-03-17T11:24:03.165Z,28.30
2019-03-17T11:26:29.359Z,27.40
2019-03-17T11:28:56.650Z,27.60
2019-03-17T11:31:22.825Z,27.90
2019-03-17T11:33:48.980Z,28.20
2019-03-17T11:36:15.203Z,27.80
2019-03-17T11:38:41.365Z,28.80
2019-03-17T11:41:07.640Z,28.90
2019-03-17T11:43:33.842Z,28.20
2019-03-17T11:46:01.101Z,27.70
2019-03-17T11:48:27.252Z,27.90
2019-03-17T11:50:53.435Z,27.30
2019-03-17T11:53:19.666Z,26.90
2019-03-17T11:55:45.856Z,26.20
2019-03-17T11:58:12.021Z,25.90
2019-03-17T12:00:38.172Z,25.90
2019-03-17T12:03:04.345Z,25.60
2019-03-17T12:05:30.500Z,26.50
2019-03-17T12:07:56.723Z,25.10
2019-03-17T12:10:23.200Z,23.70
2019-03-17T12:12:49.376Z,22.80
2019-03-17T12:15:20.460Z,21.90
2019-03-17T12:17:47.737Z,21.20
2019-03-17T12:20:15.108Z,21.20
2019-03-17T12:22:41.311Z,20.90
2019-03-17T12:25:12.309Z,20.80
2019-03-17T12:27:38.764Z,20.80
2019-03-17T12:30:14.778Z,20.70
2019-03-17T12:32:40.970Z,20.50
2019-03-17T12:35:07.121Z,20.40
2019-03-17T12:37:33.309Z,20.30
2019-03-17T12:40:02.761Z,20.30
2019-03-17T12:42:28.527Z,20.40
2019-03-17T12:44:56.543Z,20.40
2019-03-17T12:47:23.847Z,20.30
2019-03-17T12:49:50.273Z,20.40
2019-03-17T12:52:16.537Z,20.30
2019-03-17T12:54:42.952Z,20.30
2019-03-17T12:57:09.139Z,20.50
2019-03-17T12:59:35.320Z,20.60
2019-03-17T13:02:01.575Z,20.60
2019-03-17T13:04:27.758Z,20.80
2019-03-17T13:06:53.925Z,20.60
2019-03-17T13:09:20.109Z,20.80
2019-03-17T13:11:46.305Z,20.80
2019-03-17T13:14:12.464Z,20.60
2019-03-17T13:16:38.637Z,20.60
2019-03-17T13:19:04.862Z,20.60
2019-03-17T13:21:31.052Z,20.50
2019-03-17T13:23:57.204Z,20.30
2019-03-17T13:26:25.423Z,20.30
2019-03-17T13:28:51.736Z,20.30
2019-03-17T13:31:20.449Z,20.30
2019-03-17T13:33:45.973Z,20.40
2019-03-17T13:36:12.176Z,20.40
2019-03-17T13:38:38.345Z,20.50
2019-03-17T13:41:04.662Z,20.40
2019-03-17T13:43:50.688Z,20.40
2019-03-17T13:46:16.865Z,20.20
2019-03-17T13:48:43.075Z,20.30
2019-03-17T13:51:09.372Z,20.30
2019-03-17T13:53:35.523Z,20.20
2019-03-17T13:56:02.683Z,20.10
2019-03-17T13:58:28.887Z,20.10
2019-03-17T14:00:55.048Z,20.20
2019-03-17T14:03:21.224Z,20.30
2019-03-17T14:05:47.401Z,20.40
2019-03-17T14:08:13.567Z,20.40
2019-03-17T14:10:41.194Z,20.30
2019-03-17T14:13:07.827Z,20.20
2019-03-17T14:15:34.006Z,20.20
2019-03-17T14:18:00.185Z,20.00
2019-03-17T14:20:26.409Z,19.80
2019-03-17T14:22:52.649Z,19.70
2019-03-17T14:25:25.822Z,19.60
2019-03-17T14:27:52.005Z,19.40
2019-03-17T14:30:19.275Z,19.40
2019-03-17T14:32:45.464Z,19.40
2019-03-17T14:35:11.885Z,19.40
2019-03-17T14:37:38.082Z,19.30
2019-03-17T14:40:10.621Z,18.90
2019-03-17T14:42:36.893Z,18.60
2019-03-17T14:45:08.937Z,18.30
2019-03-17T14:47:35.137Z,18.30
2019-03-17T14:50:01.284Z,18.20
2019-03-17T14:52:28.455Z,18.10
2019-03-17T14:54:54.641Z,18.10
2019-03-17T14:57:20.798Z,18.10
2019-03-17T14:59:46.979Z,18.10
2019-03-17T15:02:13.157Z,18.10
2019-03-17T15:04:41.164Z,18.00
2019-03-17T15:07:07.393Z,17.90
2019-03-17T15:09:33.776Z,17.90
2019-03-17T15:11:59.940Z,18.00
2019-03-17T15:14:26.091Z,18.00
2019-03-17T15:16:52.630Z,18.10
2019-03-17T15:19:18.809Z,17.90
2019-03-17T15:21:44.979Z,17.80
2019-03-17T15:24:12.291Z,17.60
2019-03-17T15:26:38.445Z,17.40
2019-03-17T15:29:04.604Z,17.20
2019-03-17T15:31:30.775Z,17.10
2019-03-17T15:33:56.943Z,16.90
2019-03-17T15:36:23.117Z,16.90
2019-03-17T15:38:49.272Z,17.00
2019-03-17T15:41:18.938Z,17.10
2019-03-17T15:43:43.534Z,16.90
2019-03-17T15:46:09.686Z,16.70
2019-03-17T15:48:35.876Z,16.40
2019-03-17T15:51:02.048Z,16.20
2019-03-17T15:53:28.312Z,16.10
2019-03-17T15:55:54.595Z,16.10
2019-03-17T15:58:20.744Z,16.10
2019-03-17T16:00:46.900Z,16.20
2019-03-17T16:03:13.080Z,16.10
2019-03-17T16:05:39.235Z,16.00
2019-03-17T16:08:05.424Z,15.90
2019-03-17T16:10:31.704Z,15.80
2019-03-17T16:12:57.872Z,15.60
2019-03-17T16:15:24.170Z,15.50
2019-03-17T16:17:50.389Z,15.50
2019-03-17T16:20:23.423Z,15.40
2019-03-17T16:22:49.628Z,15.40
2019-03-17T16:25:23.579Z,15.30
2019-03-17T16:27:49.768Z,15.30
2019-03-17T16:30:18.784Z,15.30
2019-03-17T16:32:44.944Z,15.20
2019-03-17T16:35:11.308Z,15.10
2019-03-17T16:37:37.477Z,15.10
2019-03-17T16:40:10.045Z,15.10
2019-03-17T16:42:36.343Z,14.90
2019-03-17T16:45:05.930Z,14.80
2019-03-17T16:47:32.133Z,14.70
2019-03-17T16:49:59.123Z,14.60
2019-03-17T16:52:25.475Z,14.60
2019-03-17T16:54:51.627Z,14.50
2019-03-17T16:57:18.946Z,14.40
2019-03-17T16:59:45.155Z,14.30
2019-03-17T17:02:11.343Z,13.90
2019-03-17T17:04:37.498Z,13.20
2019-03-17T17:07:03.680Z,12.80
2019-03-17T17:09:29.836Z,12.50
2019-03-17T17:11:57.484Z,12.20
2019-03-17T17:14:23.762Z,12.10
2019-03-17T17:16:49.926Z,11.80
2019-03-17T17:19:16.249Z,11.20
2019-03-17T17:21:42.406Z,10.60
2019-03-17T17:24:08.592Z,9.80
2019-03-17T17:26:37.717Z,9.20
2019-03-17T17:29:03.217Z,8.80
2019-03-17T17:31:29.728Z,8.50
2019-03-17T17:33:55.910Z,8.40
2019-03-17T17:36:22.288Z,8.00
2019-03-17T17:38:49.464Z,7.70
2019-03-17T17:41:15.616Z,7.60
2019-03-17T17:43:41.796Z,7.60
2019-03-17T17:46:07.968Z,7.40
2019-03-17T17:48:34.163Z,7.30
2019-03-17T17:51:00.343Z,7.10
2019-03-17T17:53:26.544Z,6.90
2019-03-17T17:55:52.721Z,6.60
2019-03-17T17:58:18.891Z,6.50
2019-03-17T18:00:47.015Z,6.40
2019-03-17T18:03:13.203Z,6.30
2019-03-17T18:05:39.391Z,6.30
2019-03-17T18:08:05.603Z,6.20
2019-03-17T18:10:31.743Z,6.10
2019-03-17T18:12:57.968Z,6.10
2019-03-17T18:15:32.045Z,5.90
2019-03-17T18:17:58.320Z,5.90
2019-03-17T18:20:24.499Z,5.70
2019-03-17T18:22:50.688Z,5.70
2019-03-17T18:25:18.076Z,5.60
2019-03-17T18:27:44.397Z,5.50
2019-03-17T18:30:13.665Z,5.30
2019-03-17T18:32:40.226Z,5.10
2019-03-17T18:35:07.650Z,5.00
2019-03-17T18:37:33.785Z,5.00
2019-03-17T18:39:59.967Z,5.00
2019-03-17T18:42:33.034Z,4.90
2019-03-17T18:44:54.224Z,4.80
2019-03-17T18:47:20.410Z,4.80
2019-03-17T18:49:46.564Z,4.80
2019-03-17T18:52:12.736Z,4.70
2019-03-17T18:54:38.896Z,4.70
2019-03-17T18:57:05.353Z,4.60
2019-03-17T18:59:31.528Z,4.60
2019-03-17T19:01:57.707Z,4.60
2019-03-17T19:04:23.891Z,4.60
2019-03-17T19:06:50.050Z,4.50
2019-03-17T19:09:16.231Z,4.50
2019-03-17T19:11:42.404Z,4.50
2019-03-17T19:14:08.569Z,4.50
2019-03-17T19:16:34.869Z,4.50
2019-03-17T19:19:01.074Z,4.50
2019-03-17T19:21:27.235Z,4.40
2019-03-17T19:23:53.452Z,4.50
2019-03-17T19:26:19.589Z,4.40
2019-03-17T19:28:45.803Z,4.50
2019-03-17T19:31:14.653Z,4.50
2019-03-17T19:33:40.806Z,4.50
2019-03-17T19:36:06.980Z,4.50
2019-03-17T19:38:33.176Z,4.50
2019-03-17T19:41:01.981Z,4.50
2019-03-17T19:43:27.436Z,4.50
2019-03-17T19:45:53.592Z,4.50
2019-03-17T19:48:19.816Z,4.40
2019-03-17T19:50:46.098Z,4.40
2019-03-17T19:53:12.309Z,4.30
2019-03-17T19:55:38.485Z,4.30
2019-03-17T19:58:04.759Z,4.30
2019-03-17T20:00:30.992Z,4.30
2019-03-17T20:02:57.147Z,4.30
2019-03-17T20:05:23.326Z,4.40
2019-03-17T20:07:49.521Z,4.40
2019-03-17T20:10:19.482Z,4.40
2019-03-17T20:12:45.647Z,4.30
2019-03-17T20:15:12.138Z,4.40
2019-03-17T20:17:38.348Z,4.40
2019-03-17T20:20:10.616Z,4.50
2019-03-17T20:22:36.879Z,4.40
2019-03-17T20:25:04.732Z,4.50
2019-03-17T20:27:31.892Z,4.50
2019-03-17T20:29:59.430Z,4.40
2019-03-17T20:32:25.861Z,4.30
2019-03-17T20:34:52.035Z,4.40
2019-03-17T20:37:18.196Z,4.50
2019-03-17T20:39:44.376Z,4.50
2019-03-17T20:42:10.533Z,4.40
2019-03-17T20:44:37.138Z,4.50
2019-03-17T20:47:03.374Z,4.50
2019-03-17T20:49:29.554Z,4.50
2019-03-17T20:51:55.713Z,4.40
2019-03-17T20:54:21.916Z,4.40
2019-03-17T20:56:48.150Z,4.40
2019-03-17T20:59:14.391Z,4.40
2019-03-17T21:01:40.548Z,4.40
2019-03-17T21:04:06.703Z,4.40
2019-03-17T21:06:33.243Z,4.40
2019-03-17T21:08:59.417Z,4.40
2019-03-17T21:11:25.577Z,4.40
2019-03-17T21:13:51.766Z,4.40
2019-03-17T21:16:17.944Z,4.40
2019-03-17T21:18:44.103Z,4.40
2019-03-17T21:21:10.272Z,4.30
2019-03-17T21:23:36.652Z,4.30
2019-03-17T21:26:02.815Z,4.30
2019-03-17T21:28:28.972Z,4.20
2019-03-17T21:30:55.144Z,4.20
2019-03-17T21:33:21.304Z,4.10
2019-03-17T21:35:47.488Z,4.10
2019-03-17T21:38:13.635Z,4.10
2019-03-17T21:40:56.174Z,4.10
2019-03-17T21:43:07.887Z,4.00
2019-03-17T21:45:35.090Z,4.00
2019-03-17T21:48:01.243Z,4.00
2019-03-17T21:50:27.412Z,4.00
2019-03-17T21:52:53.620Z,4.00
2019-03-17T21:55:19.842Z,4.00
2019-03-17T21:57:46.068Z,3.90
2019-03-17T22:00:14.800Z,4.00
2019-03-17T22:02:41.091Z,3.90
2019-03-17T22:05:07.268Z,3.90
2019-03-17T22:07:33.525Z,4.00
2019-03-17T22:10:00.904Z,4.00
2019-03-17T22:12:27.058Z,3.90
2019-03-17T22:14:53.244Z,3.90
2019-03-17T22:17:19.393Z,3.80
2019-03-17T22:19:45.583Z,3.80
2019-03-17T22:22:11.768Z,3.90
2019-03-17T22:24:37.938Z,3.90
2019-03-17T22:27:04.112Z,3.90
2019-03-17T22:29:30.267Z,3.80
2019-03-17T22:31:56.465Z,3.80
2019-03-17T22:34:22.624Z,3.70
2019-03-17T22:36:48.797Z,3.80
2019-03-17T22:39:14.940Z,3.80
2019-03-17T22:41:41.112Z,3.80
2019-03-17T22:44:07.341Z,3.80
2019-03-17T22:46:33.549Z,3.90
2019-03-17T22:48:59.704Z,3.90
2019-03-17T22:51:25.900Z,3.90
2019-03-17T22:53:52.055Z,3.90
2019-03-17T22:56:18.244Z,3.90
2019-03-17T22:58:45.499Z,3.80
2019-03-17T23:01:11.672Z,3.80
2019-03-17T23:03:37.843Z,3.80
2019-03-17T23:06:04.001Z,3.80
2019-03-17T23:08:30.183Z,3.80
2019-03-17T23:10:56.371Z,3.80
2019-03-17T23:13:22.548Z,3.80
2019-03-17T23:15:48.713Z,3.80
2019-03-17T23:18:16.797Z,3.80
2019-03-17T23:20:42.945Z,3.40
2019-03-17T23:23:09.168Z,3.20
2019-03-17T23:25:35.340Z,3.10
2019-03-17T23:28:01.494Z,3.10
2019-03-17T23:30:27.760Z,3.10
2019-03-17T23:32:54.720Z,3.10
2019-03-17T23:35:20.881Z,3.10
2019-03-17T23:37:47.079Z,3.00
2019-03-17T23:40:15.632Z,3.00
2019-03-17T23:42:41.951Z,3.00
2019-03-17T23:45:09.507Z,2.90
2019-03-17T23:47:35.984Z,2.90
2019-03-17T23:50:04.157Z,2.90
2019-03-17T23:52:30.307Z,2.90
2019-03-17T23:54:56.463Z,2.90
2019-03-17T23:57:22.648Z,2.90
2019-03-17T23:59:48.800Z,3.00
